createdAt,value
2023-05-24T00:03:10.500Z,5.13
2023-05-24T00:08:02.494Z,5.07
2023-05-24T00:12:54.392Z,5.97
2023-05-24T00:17:46.365Z,5.93
2023-05-24T00:22:39.464Z,5.33
2023-05-24T00:27:32.141Z,5.38
2023-05-24T00:32:24.709Z,5.32
2023-05-24T00:37:18.337Z,5.73
2023-05-24T00:42:10.214Z,5.13
2023-05-24T00:47:02.088Z,4.93
2023-05-24T00:51:54.590Z,4.83
2023-05-24T00:56:47.930Z,5.20
2023-05-24T01:01:41.922Z,5.35
2023-05-24T01:06:58.074Z,5.50
2023-05-24T01:12:12.439Z,4.70
2023-05-24T01:17:24.545Z,5.65
2023-05-24T01:22:40.041Z,5.05
2023-05-24T01:27:36.597Z,5.00
2023-05-24T01:32:28.951Z,5.45
2023-05-24T01:42:26.696Z,4.65
2023-05-24T01:47:27.680Z,4.97
2023-05-24T01:52:23.135Z,5.20
2023-05-24T01:57:15.277Z,5.45
2023-05-24T02:02:07.279Z,4.88
2023-05-24T02:06:59.242Z,5.63
2023-05-24T02:11:51.207Z,5.07
2023-05-24T02:16:47.075Z,4.90
2023-05-24T02:21:39.181Z,5.63
2023-05-24T02:26:31.118Z,5.17
2023-05-24T02:31:23.145Z,4.80
2023-05-24T02:36:15.168Z,5.35
2023-05-24T02:41:08.502Z,5.20
2023-05-24T02:46:00.394Z,5.05
2023-05-24T02:50:52.328Z,5.40
2023-05-24T02:55:44.257Z,4.83
2023-05-24T03:00:38.358Z,4.90
2023-05-24T03:05:30.914Z,4.68
2023-05-24T03:10:22.799Z,5.40
2023-05-24T03:15:14.741Z,4.67
2023-05-24T03:20:08.065Z,4.88
2023-05-24T03:25:00.027Z,5.13
2023-05-24T03:29:52.397Z,4.80
2023-05-24T03:34:48.583Z,4.38
2023-05-24T03:39:41.285Z,5.00
2023-05-24T03:44:51.285Z,5.07
2023-05-24T03:49:43.468Z,4.87
2023-05-24T03:54:35.387Z,4.60
2023-05-24T03:59:27.330Z,5.17
2023-05-24T04:04:20.043Z,4.60
2023-05-24T04:09:12.095Z,4.65
2023-05-24T04:18:57.747Z,4.47
2023-05-24T04:23:49.891Z,5.57
2023-05-24T04:28:42.529Z,5.22
2023-05-24T04:38:26.383Z,4.80
2023-05-24T04:43:18.422Z,4.60
2023-05-24T04:48:10.457Z,4.82
2023-05-24T04:53:02.380Z,4.63
2023-05-24T04:57:54.252Z,4.60
2023-05-24T05:02:46.340Z,4.67
2023-05-24T05:07:38.693Z,4.53
2023-05-24T05:12:30.673Z,4.70
2023-05-24T05:17:22.591Z,4.87
2023-05-24T05:22:14.491Z,4.80
2023-05-24T05:27:06.821Z,4.67
2023-05-24T05:31:58.812Z,4.85
2023-05-24T05:36:50.826Z,4.10
2023-05-24T05:41:46.002Z,5.20
2023-05-24T05:46:38.830Z,4.65
2023-05-24T05:56:22.915Z,4.72
2023-05-24T06:01:15.958Z,4.43
2023-05-24T06:06:08.012Z,4.47
2023-05-24T06:10:59.965Z,4.63
2023-05-24T06:15:52.963Z,4.60
2023-05-24T06:20:45.404Z,4.63
2023-05-24T06:35:22.987Z,4.80
2023-05-24T06:40:15.050Z,4.72
2023-05-24T06:45:08.602Z,4.40
2023-05-24T06:50:01.234Z,4.85
2023-05-24T06:54:53.191Z,4.63
2023-05-24T06:59:45.164Z,4.80
2023-05-24T07:04:37.196Z,4.83
2023-05-24T07:09:29.315Z,4.47
2023-05-24T07:14:23.241Z,4.73
2023-05-24T07:19:15.454Z,4.70
2023-05-24T07:24:07.611Z,4.50
2023-05-24T07:28:59.532Z,4.40
2023-05-24T07:33:51.521Z,4.43
2023-05-24T07:38:43.644Z,4.47
2023-05-24T07:43:37.799Z,4.93
2023-05-24T07:48:29.810Z,4.70
2023-05-24T07:53:23.073Z,4.53
2023-05-24T07:58:15.087Z,4.90
2023-05-24T08:03:07.802Z,4.80
2023-05-24T08:08:00.050Z,4.30
2023-05-24T08:12:54.973Z,4.55
2023-05-24T08:17:46.928Z,4.60
2023-05-24T08:22:38.767Z,4.47
2023-05-24T08:27:30.781Z,4.50
2023-05-24T08:32:22.811Z,4.63
2023-05-24T08:37:16.369Z,4.50
2023-05-24T08:42:10.195Z,4.55
2023-05-24T08:47:03.727Z,4.63
2023-05-24T08:51:55.594Z,4.38
2023-05-24T08:56:48.437Z,4.37
2023-05-24T09:01:41.881Z,4.40
2023-05-24T09:06:34.273Z,4.35
2023-05-24T09:11:27.669Z,4.60
2023-05-24T09:16:19.853Z,4.90
2023-05-24T09:21:12.536Z,4.65
2023-05-24T09:31:07.419Z,4.45
2023-05-24T09:36:01.547Z,4.57
2023-05-24T09:41:07.424Z,5.10
2023-05-24T09:46:00.724Z,4.65
2023-05-24T09:51:11.705Z,4.28
2023-05-24T09:56:05.233Z,4.57
2023-05-24T10:01:11.197Z,4.38
2023-05-24T10:06:08.036Z,4.63
2023-05-24T10:11:02.292Z,4.32
2023-05-24T10:15:54.238Z,4.70
2023-05-24T10:20:46.719Z,4.30
2023-05-24T10:31:08.502Z,4.00
2023-05-24T10:36:00.925Z,4.40
2023-05-24T10:40:53.040Z,4.30
2023-05-24T10:45:49.632Z,4.35
2023-05-24T10:50:42.961Z,4.55
2023-05-24T10:55:35.162Z,4.78
2023-05-24T11:05:24.285Z,4.70
2023-05-24T11:10:17.222Z,4.35
2023-05-24T11:15:10.125Z,4.10
2023-05-24T11:20:04.864Z,4.63
2023-05-24T11:24:58.159Z,3.90
2023-05-24T11:29:50.323Z,4.22
2023-05-24T11:34:45.222Z,4.65
2023-05-24T11:39:37.862Z,4.63
2023-05-24T11:54:14.752Z,4.68
2023-05-24T11:59:17.763Z,4.50
2023-05-24T12:04:10.856Z,4.50
2023-05-24T12:09:05.948Z,3.90
2023-05-24T12:13:59.262Z,4.18
2023-05-24T12:19:03.714Z,4.35
2023-05-24T12:24:25.793Z,4.32
2023-05-24T12:29:19.573Z,4.03
2023-05-24T12:34:13.194Z,4.60
2023-05-24T12:39:19.276Z,4.45
2023-05-24T12:44:12.266Z,4.40
2023-05-24T12:49:05.230Z,4.47
2023-05-24T12:53:57.396Z,4.55
2023-05-24T12:58:49.366Z,4.10
2023-05-24T13:03:41.285Z,4.40
2023-05-24T13:08:34.048Z,4.17
2023-05-24T13:13:26.050Z,4.25
2023-05-24T13:18:18.025Z,4.10
2023-05-24T13:23:10.058Z,4.97
2023-05-24T13:28:02.032Z,4.23
2023-05-24T13:32:58.905Z,4.47
2023-05-24T13:37:52.830Z,3.83
2023-05-24T13:42:44.784Z,4.00
2023-05-24T13:47:40.431Z,4.00
2023-05-24T13:52:33.440Z,3.80
2023-05-24T13:57:31.358Z,4.27
2023-05-24T14:02:31.783Z,4.20
2023-05-24T14:07:23.691Z,3.90
2023-05-24T14:12:15.696Z,4.60
2023-05-24T14:17:07.587Z,4.80
2023-05-24T14:21:59.452Z,4.23
2023-05-24T14:26:51.479Z,4.13
2023-05-24T14:31:43.717Z,4.20
2023-05-24T14:36:35.748Z,4.20
2023-05-24T14:41:27.763Z,4.18
2023-05-24T14:46:19.752Z,4.10
2023-05-24T14:51:11.926Z,4.13
2023-05-24T14:56:05.212Z,4.43
2023-05-24T15:00:57.470Z,3.78
2023-05-24T15:05:49.391Z,4.07
2023-05-24T15:10:43.849Z,4.27
2023-05-24T15:15:36.181Z,4.00
2023-05-24T15:20:28.271Z,4.38
2023-05-24T15:25:20.761Z,4.28
2023-05-24T15:30:12.905Z,4.13
2023-05-24T15:35:05.207Z,4.15
2023-05-24T15:39:57.211Z,4.25
2023-05-24T15:44:49.132Z,4.10
2023-05-24T15:49:41.147Z,4.03
2023-05-24T15:54:33.924Z,4.23
2023-05-24T15:59:25.902Z,4.57
2023-05-24T16:04:18.343Z,3.90
2023-05-24T16:09:10.404Z,4.28
2023-05-24T16:14:03.626Z,4.23
2023-05-24T16:18:55.849Z,4.03
2023-05-24T16:23:48.198Z,3.95
2023-05-24T16:28:40.117Z,4.25
2023-05-24T16:33:32.007Z,3.63
2023-05-24T16:38:24.898Z,3.67
2023-05-24T16:43:17.735Z,3.88
2023-05-24T16:48:09.851Z,3.72
2023-05-24T16:53:02.763Z,3.40
2023-05-24T16:57:55.866Z,3.90
2023-05-24T17:02:47.897Z,4.00
2023-05-24T17:07:39.954Z,3.70
2023-05-24T17:12:31.854Z,4.20
2023-05-24T17:17:23.823Z,3.90
2023-05-24T17:22:17.541Z,4.00
2023-05-24T17:27:09.584Z,3.83
2023-05-24T17:32:01.700Z,4.30
2023-05-24T17:36:53.819Z,4.30
2023-05-24T17:41:46.718Z,3.50
2023-05-24T17:46:40.651Z,4.00
2023-05-24T17:51:35.127Z,4.28
2023-05-24T17:56:27.782Z,4.00
2023-05-24T18:01:19.827Z,3.70
2023-05-24T18:06:11.884Z,3.50
2023-05-24T18:11:08.315Z,3.87
2023-05-24T18:16:01.908Z,4.03
2023-05-24T18:20:53.878Z,3.80
2023-05-24T18:25:46.109Z,4.10
2023-05-24T18:30:39.007Z,4.00
2023-05-24T18:35:32.223Z,3.95
2023-05-24T18:40:24.277Z,3.95
2023-05-24T18:45:16.330Z,4.00
2023-05-24T18:50:09.070Z,3.85
2023-05-24T18:55:01.764Z,3.80
2023-05-24T18:59:53.775Z,4.03
2023-05-24T19:04:48.407Z,4.20
2023-05-24T19:09:41.063Z,3.90
2023-05-24T19:19:24.909Z,3.90
2023-05-24T19:24:17.042Z,4.03
2023-05-24T19:29:09.049Z,4.03
2023-05-24T19:34:01.343Z,3.90
2023-05-24T19:38:53.454Z,3.72
2023-05-24T19:43:45.504Z,3.87
2023-05-24T19:48:37.494Z,3.80
2023-05-24T19:53:29.456Z,3.97
2023-05-24T19:58:21.279Z,3.67
2023-05-24T20:03:13.275Z,3.47
2023-05-24T20:08:05.498Z,4.10
2023-05-24T20:12:57.839Z,3.75
2023-05-24T20:17:49.872Z,4.22
2023-05-24T20:22:42.069Z,3.60
2023-05-24T20:27:35.052Z,3.85
2023-05-24T20:32:27.070Z,4.00
2023-05-24T20:37:19.123Z,3.38
2023-05-24T20:42:11.167Z,3.87
2023-05-24T20:47:03.131Z,3.60
2023-05-24T20:51:54.986Z,3.93
2023-05-24T20:56:46.948Z,3.70
2023-05-24T21:01:38.982Z,4.10
2023-05-24T21:06:33.949Z,4.10
2023-05-24T21:11:26.982Z,3.75
2023-05-24T21:16:19.047Z,3.83
2023-05-24T21:21:11.369Z,3.85
2023-05-24T21:26:03.390Z,4.28
2023-05-24T21:30:55.642Z,3.70
2023-05-24T21:35:47.586Z,4.15
2023-05-24T21:40:39.441Z,3.70
2023-05-24T21:45:31.761Z,3.40
2023-05-24T21:50:23.684Z,3.67
2023-05-24T21:55:15.866Z,3.60
2023-05-24T22:00:09.010Z,3.38
2023-05-24T22:05:01.314Z,3.83
2023-05-24T22:09:53.291Z,3.83
2023-05-24T22:14:45.172Z,3.47
2023-05-24T22:19:40.641Z,3.70
2023-05-24T22:24:32.708Z,3.70
2023-05-24T22:29:24.671Z,3.77
2023-05-24T22:34:26.607Z,3.70
2023-05-24T22:39:18.536Z,3.67
2023-05-24T22:44:10.751Z,3.80
2023-05-24T22:49:05.774Z,3.88
2023-05-24T22:53:57.735Z,3.47
2023-05-24T22:58:49.859Z,3.43
2023-05-24T23:03:41.911Z,3.95
2023-05-24T23:08:34.429Z,3.60
2023-05-24T23:13:28.138Z,3.70
2023-05-24T23:18:22.413Z,3.50
2023-05-24T23:23:14.328Z,3.70
2023-05-24T23:28:06.529Z,3.13
2023-05-24T23:32:59.661Z,3.67
2023-05-24T23:37:53.355Z,3.78
2023-05-24T23:42:45.346Z,3.40
2023-05-24T23:47:37.324Z,3.80
2023-05-24T23:52:29.286Z,3.53
2023-05-24T23:57:21.272Z,3.80
